Galileo — SX2040 — position and weather

sailwx.info

Track history (hours):
 
Tides and Currents Weather Stations Pressure Air Temp Water Temp Dewpoint Dewpoint Depression Visibility Wind Speed Wind Dir Waves Ship Positions

Galileo

Last reported at 2015-Aug-31 14:32 UTC. Time now 2015-Aug-31 15:25 UTC.
Position N 36°25' E 025°26'.

Length 40 m; draft 3 m.

Type: Passenger vessel. MMSI: 239299000.

Date/timePositionNaut miles runAvg speedWind from/ knotsBaromVisibWave heightAir tempDewpointWater temp
2015-Aug-31 14:32N 36°25' E 025°26'0 0.0
2015-Aug-31 13:33N 36°25' E 025°26'0 0.0
2015-Aug-31 12:33N 36°25' E 025°26'0 0.0
2015-Aug-31 11:32N 36°25' E 025°26'0 0.0
2015-Aug-31 10:32N 36°25' E 025°26'0 0.0
2015-Aug-31 09:33N 36°25' E 025°26'0 0.0
2015-Aug-31 08:33N 36°25' E 025°26'0 0.0
2015-Aug-31 07:32N 36°25' E 025°26'0 0.0
2015-Aug-31 06:33N 36°25' E 025°26'7 6.7
2015-Aug-31 05:33N 36°30' E 025°20'96 8.7
2015-Aug-30 18:33N 37°28' E 023°45'10 9.8
2015-Aug-30 17:34N 37°32' E 023°34'7 6.9
2015-Aug-30 16:33N 37°31' E 023°25'1 1.5
2015-Aug-30 15:33N 37°30' E 023°27'0 0.0
2015-Aug-30 14:33N 37°30' E 023°27'0 0.0
2015-Aug-30 13:33N 37°30' E 023°27'0 0.0
2015-Aug-30 12:33N 37°30' E 023°27'0 0.0
2015-Aug-30 11:33N 37°30' E 023°27'0 0.0
2015-Aug-30 10:33N 37°30' E 023°27'0 0.0
2015-Aug-30 09:33N 37°30' E 023°27'1 1.0
2015-Aug-30 08:33N 37°31' E 023°26'0 0.0
2015-Aug-30 07:33N 37°31' E 023°26'1 0.9
2015-Aug-30 06:33N 37°31' E 023°25'1010.0
2015-Aug-30 05:34N 37°41' E 023°24'4 0.3
2015-Aug-29 17:30N 37°45' E 023°26'0 0.0
2015-Aug-29 16:26N 37°45' E 023°26'0 0.0
2015-Aug-29 15:26N 37°45' E 023°26'2 2.2
2015-Aug-29 14:34N 37°46' E 023°24'9 9.4
2015-Aug-29 13:34N 37°52' E 023°34'6 5.8
2015-Aug-29 12:34N 37°56' E 023°39'0 0.0
2015-Aug-29 11:34N 37°56' E 023°39'0 0.0
2015-Aug-29 10:34N 37°56' E 023°39'0 0.0
2015-Aug-29 09:34N 37°56' E 023°39'0 0.0
2015-Aug-29 08:33N 37°56' E 023°39'0 0.0
2015-Aug-29 07:34N 37°56' E 023°39'0 0.0
2015-Aug-29 06:34N 37°56' E 023°39'0 0.0
2015-Aug-29 05:34N 37°56' E 023°39'0 0.0
2015-Aug-29 04:34N 37°56' E 023°39'0 0.0
2015-Aug-29 03:33N 37°56' E 023°39'0 0.0
2015-Aug-29 02:34N 37°56' E 023°39'0 0.0
2015-Aug-29 01:34N 37°56' E 023°39'0 0.0
2015-Aug-29 00:33N 37°56' E 023°39'0 0.0
2015-Aug-28 23:34N 37°56' E 023°39'0 0.0
2015-Aug-28 22:34N 37°56' E 023°39'0 0.0
2015-Aug-28 21:33N 37°56' E 023°39'0 0.0
2015-Aug-28 20:34N 37°56' E 023°39'0 0.0
2015-Aug-28 19:34N 37°56' E 023°39'0 0.0
2015-Aug-28 18:34N 37°56' E 023°39'0 0.0
2015-Aug-28 17:33N 37°56' E 023°39'1 1.4
2015-Aug-28 16:34N 37°55' E 023°38'10 9.9
2015-Aug-28 15:34N 37°48' E 023°29'5 1.0
2015-Aug-28 10:34N 37°45' E 023°24'13 9.7
2015-Aug-28 09:11N 37°52' E 023°09'  
2015-Aug-23 02:33N 37°20' E 023°22'11 9.0
2015-Aug-23 01:20N 37°28' E 023°32'5 5.9
2015-Aug-23 00:33N 37°30' E 023°27'0 0.0
2015-Aug-22 23:33N 37°30' E 023°27'0 0.0
2015-Aug-22 22:33N 37°30' E 023°27'0 0.0
2015-Aug-22 21:33N 37°30' E 023°27'0 0.0
2015-Aug-22 20:33N 37°30' E 023°27'0 0.0
2015-Aug-22 19:33N 37°30' E 023°27'0 0.0
2015-Aug-22 18:33N 37°30' E 023°27'0 0.0
2015-Aug-22 17:33N 37°30' E 023°27'0 0.0
2015-Aug-22 16:33N 37°30' E 023°27'9 7.7
2015-Aug-22 15:26N 37°38' E 023°31'910.0
2015-Aug-22 14:33N 37°46' E 023°35'10 9.6
2015-Aug-22 13:33N 37°55' E 023°39'1 0.5
2015-Aug-22 12:33N 37°56' E 023°39'0 0.0
2015-Aug-22 11:33N 37°56' E 023°39'0 0.0
2015-Aug-22 10:33N 37°56' E 023°39'0 0.0
2015-Aug-22 09:34N 37°56' E 023°39'0 0.0
2015-Aug-22 08:33N 37°56' E 023°39'0 0.0
2015-Aug-22 07:33N 37°56' E 023°39'0 0.0
2015-Aug-22 06:33N 37°56' E 023°39'0 0.0
2015-Aug-22 05:33N 37°56' E 023°39'0 0.0
2015-Aug-22 04:33N 37°56' E 023°39'0 0.0
2015-Aug-22 03:33N 37°56' E 023°39'0 0.0
2015-Aug-22 02:33N 37°56' E 023°39'0 0.0
2015-Aug-22 01:33N 37°56' E 023°39'0 0.0
2015-Aug-22 00:33N 37°56' E 023°39'0 0.0
2015-Aug-21 23:33N 37°56' E 023°39'0 0.0
2015-Aug-21 22:33N 37°56' E 023°39'0 0.0
2015-Aug-21 21:33N 37°56' E 023°39'0 0.0
2015-Aug-21 20:33N 37°56' E 023°39'0 0.0
2015-Aug-21 19:33N 37°56' E 023°39'0 0.0
2015-Aug-21 18:33N 37°56' E 023°39'0 0.0
2015-Aug-21 17:33N 37°56' E 023°39'7 6.9
2015-Aug-21 16:33N 37°51' E 023°33'10 9.5
2015-Aug-21 15:33N 37°46' E 023°23'  
Track history (hours):
 
Tides and Currents Weather Stations Pressure Air Temp Water Temp Dewpoint Dewpoint Depression Visibility Wind Speed Wind Dir Waves Ship Positions

Galileo

Last reported at 2015-Aug-31 14:32 UTC. Time now 2015-Aug-31 15:25 UTC.
Position N 36°25' E 025°26'.

Length 40 m; draft 3 m.

Type: Passenger vessel. MMSI: 239299000.

Date/timePositionNaut miles runAvg speedWind from/ knotsBaromVisibWave heightAir tempDewpointWater temp
2015-Aug-31 14:32N 36°25' E 025°26'0 0.0
2015-Aug-31 13:33N 36°25' E 025°26'0 0.0
2015-Aug-31 12:33N 36°25' E 025°26'0 0.0
2015-Aug-31 11:32N 36°25' E 025°26'0 0.0
2015-Aug-31 10:32N 36°25' E 025°26'0 0.0
2015-Aug-31 09:33N 36°25' E 025°26'0 0.0
2015-Aug-31 08:33N 36°25' E 025°26'0 0.0
2015-Aug-31 07:32N 36°25' E 025°26'0 0.0
2015-Aug-31 06:33N 36°25' E 025°26'7 6.7
2015-Aug-31 05:33N 36°30' E 025°20'96 8.7
2015-Aug-30 18:33N 37°28' E 023°45'10 9.8
2015-Aug-30 17:34N 37°32' E 023°34'7 6.9
2015-Aug-30 16:33N 37°31' E 023°25'1 1.5
2015-Aug-30 15:33N 37°30' E 023°27'0 0.0
2015-Aug-30 14:33N 37°30' E 023°27'0 0.0
2015-Aug-30 13:33N 37°30' E 023°27'0 0.0
2015-Aug-30 12:33N 37°30' E 023°27'0 0.0
2015-Aug-30 11:33N 37°30' E 023°27'0 0.0
2015-Aug-30 10:33N 37°30' E 023°27'0 0.0
2015-Aug-30 09:33N 37°30' E 023°27'1 1.0
2015-Aug-30 08:33N 37°31' E 023°26'0 0.0
2015-Aug-30 07:33N 37°31' E 023°26'1 0.9
2015-Aug-30 06:33N 37°31' E 023°25'1010.0
2015-Aug-30 05:34N 37°41' E 023°24'4 0.3
2015-Aug-29 17:30N 37°45' E 023°26'0 0.0
2015-Aug-29 16:26N 37°45' E 023°26'0 0.0
2015-Aug-29 15:26N 37°45' E 023°26'2 2.2
2015-Aug-29 14:34N 37°46' E 023°24'9 9.4
2015-Aug-29 13:34N 37°52' E 023°34'6 5.8
2015-Aug-29 12:34N 37°56' E 023°39'0 0.0
2015-Aug-29 11:34N 37°56' E 023°39'0 0.0
2015-Aug-29 10:34N 37°56' E 023°39'0 0.0
2015-Aug-29 09:34N 37°56' E 023°39'0 0.0
2015-Aug-29 08:33N 37°56' E 023°39'0 0.0
2015-Aug-29 07:34N 37°56' E 023°39'0 0.0
2015-Aug-29 06:34N 37°56' E 023°39'0 0.0
2015-Aug-29 05:34N 37°56' E 023°39'0 0.0
2015-Aug-29 04:34N 37°56' E 023°39'0 0.0
2015-Aug-29 03:33N 37°56' E 023°39'0 0.0
2015-Aug-29 02:34N 37°56' E 023°39'0 0.0
2015-Aug-29 01:34N 37°56' E 023°39'0 0.0
2015-Aug-29 00:33N 37°56' E 023°39'0 0.0
2015-Aug-28 23:34N 37°56' E 023°39'0 0.0
2015-Aug-28 22:34N 37°56' E 023°39'0 0.0
2015-Aug-28 21:33N 37°56' E 023°39'0 0.0
2015-Aug-28 20:34N 37°56' E 023°39'0 0.0
2015-Aug-28 19:34N 37°56' E 023°39'0 0.0
2015-Aug-28 18:34N 37°56' E 023°39'0 0.0
2015-Aug-28 17:33N 37°56' E 023°39'1 1.4
2015-Aug-28 16:34N 37°55' E 023°38'10 9.9
2015-Aug-28 15:34N 37°48' E 023°29'5 1.0
2015-Aug-28 10:34N 37°45' E 023°24'13 9.7
2015-Aug-28 09:11N 37°52' E 023°09'  
2015-Aug-23 02:33N 37°20' E 023°22'11 9.0
2015-Aug-23 01:20N 37°28' E 023°32'5 5.9
2015-Aug-23 00:33N 37°30' E 023°27'0 0.0
2015-Aug-22 23:33N 37°30' E 023°27'0 0.0
2015-Aug-22 22:33N 37°30' E 023°27'0 0.0
2015-Aug-22 21:33N 37°30' E 023°27'0 0.0
2015-Aug-22 20:33N 37°30' E 023°27'0 0.0
2015-Aug-22 19:33N 37°30' E 023°27'0 0.0
2015-Aug-22 18:33N 37°30' E 023°27'0 0.0
2015-Aug-22 17:33N 37°30' E 023°27'0 0.0
2015-Aug-22 16:33N 37°30' E 023°27'9 7.7
2015-Aug-22 15:26N 37°38' E 023°31'910.0
2015-Aug-22 14:33N 37°46' E 023°35'10 9.6
2015-Aug-22 13:33N 37°55' E 023°39'1 0.5
2015-Aug-22 12:33N 37°56' E 023°39'0 0.0
2015-Aug-22 11:33N 37°56' E 023°39'0 0.0
2015-Aug-22 10:33N 37°56' E 023°39'0 0.0
2015-Aug-22 09:34N 37°56' E 023°39'0 0.0
2015-Aug-22 08:33N 37°56' E 023°39'0 0.0
2015-Aug-22 07:33N 37°56' E 023°39'0 0.0
2015-Aug-22 06:33N 37°56' E 023°39'0 0.0
2015-Aug-22 05:33N 37°56' E 023°39'0 0.0
2015-Aug-22 04:33N 37°56' E 023°39'0 0.0
2015-Aug-22 03:33N 37°56' E 023°39'0 0.0
2015-Aug-22 02:33N 37°56' E 023°39'0 0.0
2015-Aug-22 01:33N 37°56' E 023°39'0 0.0
2015-Aug-22 00:33N 37°56' E 023°39'0 0.0
2015-Aug-21 23:33N 37°56' E 023°39'0 0.0
2015-Aug-21 22:33N 37°56' E 023°39'0 0.0
2015-Aug-21 21:33N 37°56' E 023°39'0 0.0
2015-Aug-21 20:33N 37°56' E 023°39'0 0.0
2015-Aug-21 19:33N 37°56' E 023°39'0 0.0
2015-Aug-21 18:33N 37°56' E 023°39'0 0.0
2015-Aug-21 17:33N 37°56' E 023°39'7 6.9
2015-Aug-21 16:33N 37°51' E 023°33'10 9.5
2015-Aug-21 15:33N 37°46' E 023°23'  

Dump ship's entire track history